Time,TemperatureF,DewpointF,PressureIn,WindDirection,WindDirectionDegrees,WindSpeedMPH,WindSpeedGustMPH,Humidity,HourlyPrecipIn,Conditions,Clouds,dailyrainin,SoftwareType,DateUTC
2013-05-05 00:01:00,59.9,42.7,30.06,ENE,75,5.0,6.0,53,0.00,,SCT250,0.00,VWS V14.01,2013-05-05 04:01:00,
2013-05-05 00:06:00,59.7,42.6,30.06,ESE,103,3.0,6.0,53,0.00,,SCT250,0.00,VWS V14.01,2013-05-05 04:06:00,
2013-05-05 00:11:00,59.3,42.7,30.06,ESE,116,6.0,6.0,54,0.00,,SCT250,0.00,VWS V14.01,2013-05-05 04:11:00,
2013-05-05 00:16:00,59.0,42.9,30.06,ESE,103,7.0,10.0,55,0.00,,SCT250,0.00,VWS V14.01,2013-05-05 04:16:00,
2013-05-05 00:21:00,58.7,43.1,30.07,ESE,110,7.0,7.0,56,0.00,,SCT250,0.00,VWS V14.01,2013-05-05 04:21:00,
2013-05-05 00:26:00,58.4,43.2,30.07,ESE,103,3.0,5.0,57,0.00,,SCT250,0.00,VWS V14.01,2013-05-05 04:26:00,
2013-05-05 00:31:00,58.2,43.1,30.07,ESE,116,5.0,7.0,57,0.00,,SCT250,0.00,VWS V14.01,2013-05-05 04:31:00,
2013-05-05 00:36:00,58.0,43.3,30.07,East,101,6.0,7.0,58,0.00,,SCT250,0.00,VWS V14.01,2013-05-05 04:36:00,
2013-05-05 00:41:00,57.9,43.2,30.07,East,91,5.0,9.0,58,0.00,,SCT250,0.00,VWS V14.01,2013-05-05 04:41:00,
2013-05-05 00:46:00,57.8,43.1,30.07,East,85,5.0,6.0,58,0.00,,SCT250,0.00,VWS V14.01,2013-05-05 04:46:00,
2013-05-05 00:51:00,57.5,43.3,30.07,East,92,8.0,8.0,59,0.00,,SCT250,0.00,VWS V14.01,2013-05-05 04:51:00,
2013-05-05 00:56:00,57.3,43.1,30.07,East,95,5.0,6.0,59,0.00,,SCT250,0.00,VWS V14.01,2013-05-05 04:56:00,
2013-05-05 01:01:00,57.2,43.5,30.07,ENE,74,6.0,7.0,60,0.00,,SCT250,0.00,VWS V14.01,2013-05-05 05:01:00,
2013-05-05 01:06:00,57.1,43.4,30.07,ENE,74,5.0,8.0,60,0.00,,SCT250,0.00,VWS V14.01,2013-05-05 05:06:00,
2013-05-05 01:11:00,57.0,43.3,30.07,East,93,5.0,7.0,60,0.00,,SCT250,0.00,VWS V14.01,2013-05-05 05:11:00,
2013-05-05 01:16:00,56.9,43.6,30.07,East,83,4.0,8.0,61,0.00,,SCT250,0.00,VWS V14.01,2013-05-05 05:16:00,
2013-05-05 01:21:00,56.8,43.5,30.07,ENE,74,8.0,8.0,61,0.00,,SCT250,0.00,VWS V14.01,2013-05-05 05:21:00,
2013-05-05 01:26:00,56.7,43.4,30.08,East,92,5.0,6.0,61,0.00,,SCT250,0.00,VWS V14.01,2013-05-05 05:26:00,
2013-05-05 01:31:00,56.6,43.8,30.08,East,88,6.0,6.0,62,0.00,,SCT250,0.00,VWS V14.01,2013-05-05 05:31:00,
2013-05-05 01:36:00,56.5,43.7,30.08,ESE,119,3.0,5.0,62,0.00,,SCT250,0.00,VWS V14.01,2013-05-05 05:36:00,
2013-05-05 01:41:00,56.3,43.5,30.08,ESE,105,5.0,6.0,62,0.00,,SCT250,0.00,VWS V14.01,2013-05-05 05:41:00,
2013-05-05 01:46:00,56.2,43.4,30.08,ESE,106,5.0,5.0,62,0.00,,SCT250,0.00,VWS V14.01,2013-05-05 05:46:00,
2013-05-05 01:51:00,56.1,43.7,30.08,East,90,5.0,5.0,63,0.00,,SCT250,0.00,VWS V14.01,2013-05-05 05:51:00,
2013-05-05 01:56:00,55.9,43.5,30.07,ENE,64,4.0,6.0,63,0.00,,SCT250,0.00,VWS V14.01,2013-05-05 05:56:00,
2013-05-05 02:01:00,55.7,43.3,30.08,East,84,4.0,5.0,63,0.00,,CLR,0.00,VWS V14.01,2013-05-05 06:01:00,
2013-05-05 02:06:00,55.8,43.4,30.07,East,83,4.0,6.0,63,0.00,,CLR,0.00,VWS V14.01,2013-05-05 06:06:00,
2013-05-05 02:11:00,55.8,43.4,30.07,East,83,4.0,7.0,63,0.00,,CLR,0.00,VWS V14.01,2013-05-05 06:11:00,
2013-05-05 02:16:00,55.7,43.3,30.07,ENE,71,3.0,7.0,63,0.00,,CLR,0.00,VWS V14.01,2013-05-05 06:16:00,
2013-05-05 02:21:00,55.7,43.3,30.07,East,84,4.0,6.0,63,0.00,,CLR,0.00,VWS V14.01,2013-05-05 06:21:00,
2013-05-05 02:26:00,55.7,43.3,30.07,East,82,4.0,6.0,63,0.00,,CLR,0.00,VWS V14.01,2013-05-05 06:26:00,
2013-05-05 02:31:00,55.7,43.3,30.07,ENE,70,4.0,6.0,63,0.00,,CLR,0.00,VWS V14.01,2013-05-05 06:31:00,
2013-05-05 02:36:00,55.7,43.3,30.07,East,80,4.0,6.0,63,0.00,,CLR,0.00,VWS V14.01,2013-05-05 06:36:00,
2013-05-05 02:41:00,55.6,43.2,30.07,East,99,5.0,5.0,63,0.00,,CLR,0.00,VWS V14.01,2013-05-05 06:41:00,
2013-05-05 02:46:00,55.5,43.1,30.07,ENE,71,4.0,6.0,63,0.00,,CLR,0.00,VWS V14.01,2013-05-05 06:46:00,
2013-05-05 02:51:00,55.5,43.1,30.07,East,83,3.0,5.0,63,0.00,,CLR,0.00,VWS V14.01,2013-05-05 06:51:00,
2013-05-05 02:56:00,55.5,43.1,30.07,East,84,4.0,4.0,63,0.00,,CLR,0.00,VWS V14.01,2013-05-05 06:56:00,
2013-05-05 03:01:00,55.5,43.1,30.07,East,87,4.0,7.0,63,0.00,,CLR,0.00,VWS V14.01,2013-05-05 07:01:00,
2013-05-05 03:06:00,55.4,43.4,30.07,East,98,6.0,6.0,64,0.00,,CLR,0.00,VWS V14.01,2013-05-05 07:06:00,
2013-05-05 03:11:00,55.4,43.4,30.07,ENE,75,4.0,6.0,64,0.00,,CLR,0.00,VWS V14.01,2013-05-05 07:11:00,
2013-05-05 03:16:00,55.3,43.3,30.06,East,81,5.0,7.0,64,0.00,,CLR,0.00,VWS V14.01,2013-05-05 07:16:00,
2013-05-05 03:21:00,55.1,43.2,30.06,ESE,117,6.0,8.0,64,0.00,,CLR,0.00,VWS V14.01,2013-05-05 07:21:00,
2013-05-05 03:26:00,55.1,43.6,30.07,East,94,5.0,6.0,65,0.00,,CLR,0.00,VWS V14.01,2013-05-05 07:26:00,
2013-05-05 03:31:00,54.9,43.4,30.06,East,90,4.0,6.0,65,0.00,,CLR,0.00,VWS V14.01,2013-05-05 07:31:00,
2013-05-05 03:36:00,54.7,43.2,30.06,ESE,120,6.0,7.0,65,0.00,,CLR,0.00,VWS V14.01,2013-05-05 07:36:00,
2013-05-05 03:41:00,54.4,43.3,30.07,East,93,5.0,6.0,66,0.00,,CLR,0.00,VWS V14.01,2013-05-05 07:41:00,
2013-05-05 03:46:00,54.1,43.4,30.07,East,82,3.0,5.0,67,0.00,,CLR,0.00,VWS V14.01,2013-05-05 07:46:00,
2013-05-05 03:51:00,53.9,43.2,30.07,ENE,77,4.0,5.0,67,0.00,,CLR,0.00,VWS V14.01,2013-05-05 07:51:00,
2013-05-05 03:56:00,53.8,43.5,30.07,East,92,4.0,5.0,68,0.00,,CLR,0.00,VWS V14.01,2013-05-05 07:56:00,
2013-05-05 04:01:00,53.7,43.4,30.07,East,98,4.0,5.0,68,0.00,,CLR,0.00,VWS V14.01,2013-05-05 08:01:00,
2013-05-05 04:06:00,53.7,43.4,30.07,East,85,2.0,2.0,68,0.00,,CLR,0.00,VWS V14.01,2013-05-05 08:06:00,
2013-05-05 04:11:00,53.7,43.4,30.07,East,89,4.0,4.0,68,0.00,,CLR,0.00,VWS V14.01,2013-05-05 08:11:00,
2013-05-05 04:16:00,53.7,43.0,30.07,ENE,69,2.0,4.0,67,0.00,,CLR,0.00,VWS V14.01,2013-05-05 08:16:00,
2013-05-05 04:21:00,53.7,43.4,30.07,ESE,108,1.0,4.0,68,0.00,,CLR,0.00,VWS V14.01,2013-05-05 08:21:00,
2013-05-05 04:26:00,53.5,43.2,30.07,ENE,75,4.0,5.0,68,0.00,,CLR,0.00,VWS V14.01,2013-05-05 08:26:00,
2013-05-05 04:31:00,53.6,43.3,30.06,ENE,78,4.0,6.0,68,0.00,,CLR,0.00,VWS V14.01,2013-05-05 08:31:00,
2013-05-05 04:36:00,53.6,43.3,30.07,East,88,5.0,8.0,68,0.00,,CLR,0.00,VWS V14.01,2013-05-05 08:36:00,
2013-05-05 04:41:00,53.7,43.4,30.06,ENE,68,3.0,4.0,68,0.00,,CLR,0.00,VWS V14.01,2013-05-05 08:41:00,
2013-05-05 04:46:00,53.6,43.3,30.06,ENE,72,4.0,5.0,68,0.00,,CLR,0.00,VWS V14.01,2013-05-05 08:46:00,
2013-05-05 04:51:00,53.5,43.2,30.06,ENE,58,3.0,3.0,68,0.00,,CLR,0.00,VWS V14.01,2013-05-05 08:51:00,
2013-05-05 04:56:00,53.4,43.5,30.06,ENE,73,2.0,5.0,69,0.00,,CLR,0.00,VWS V14.01,2013-05-05 08:56:00,
2013-05-05 05:01:00,53.3,43.4,30.06,ENE,70,1.0,3.0,69,0.00,,CLR,0.00,VWS V14.01,2013-05-05 09:01:00,
2013-05-05 05:06:00,53.2,43.3,30.07,East,94,0.0,1.0,69,0.00,,CLR,0.00,VWS V14.01,2013-05-05 09:06:00,
2013-05-05 05:11:00,53.0,43.5,30.06,East,89,0.0,1.0,70,0.00,,CLR,0.00,VWS V14.01,2013-05-05 09:11:00,
2013-05-05 05:16:00,52.7,43.2,30.06,East,89,0.0,0.0,70,0.00,,CLR,0.00,VWS V14.01,2013-05-05 09:16:00,
2013-05-05 05:21:00,52.4,43.3,30.06,East,89,0.0,1.0,71,0.00,,CLR,0.00,VWS V14.01,2013-05-05 09:21:00,
2013-05-05 05:26:00,52.4,43.3,30.06,NE,50,0.0,1.0,71,0.00,,CLR,0.00,VWS V14.01,2013-05-05 09:26:00,
2013-05-05 05:31:00,52.2,43.1,30.06,ENE,72,1.0,2.0,71,0.00,,CLR,0.00,VWS V14.01,2013-05-05 09:31:00,
2013-05-05 05:36:00,52.1,43.0,30.06,East,79,0.0,1.0,71,0.00,,CLR,0.00,VWS V14.01,2013-05-05 09:36:00,
2013-05-05 05:41:00,52.0,43.3,30.06,East,101,0.0,0.0,72,0.00,,CLR,0.00,VWS V14.01,2013-05-05 09:41:00,
2013-05-05 05:46:00,51.9,43.2,30.06,ESE,105,2.0,5.0,72,0.00,,CLR,0.00,VWS V14.01,2013-05-05 09:46:00,
2013-05-05 05:51:00,52.0,43.3,30.06,ENE,78,2.0,4.0,72,0.00,,CLR,0.00,VWS V14.01,2013-05-05 09:51:00,
2013-05-05 05:56:00,51.9,43.2,30.06,East,92,3.0,3.0,72,0.00,,CLR,0.00,VWS V14.01,2013-05-05 09:56:00,
2013-05-05 06:01:00,51.9,43.2,30.06,ESE,110,3.0,4.0,72,0.00,,FEW250,0.00,VWS V14.01,2013-05-05 10:01:00,
2013-05-05 06:06:00,51.7,43.0,30.06,East,96,1.0,2.0,72,0.00,,FEW250,0.00,VWS V14.01,2013-05-05 10:06:00,
2013-05-05 06:11:00,51.6,43.2,30.06,East,96,2.0,3.0,73,0.00,,FEW250,0.00,VWS V14.01,2013-05-05 10:11:00,
2013-05-05 06:16:00,51.5,43.1,30.06,East,101,2.0,3.0,73,0.00,,FEW250,0.00,VWS V14.01,2013-05-05 10:16:00,
2013-05-05 06:21:00,51.5,43.1,30.06,East,86,2.0,5.0,73,0.00,,FEW250,0.00,VWS V14.01,2013-05-05 10:21:00,
2013-05-05 06:26:00,51.7,43.3,30.06,ENE,71,4.0,6.0,73,0.00,,FEW250,0.00,VWS V14.01,2013-05-05 10:26:00,
2013-05-05 06:31:00,51.9,43.2,30.06,East,94,6.0,7.0,72,0.00,,FEW250,0.00,VWS V14.01,2013-05-05 10:31:00,
2013-05-05 06:36:00,52.4,43.3,30.06,East,82,4.0,5.0,71,0.00,,FEW250,0.00,VWS V14.01,2013-05-05 10:36:00,
2013-05-05 06:41:00,52.5,43.4,30.06,ESE,108,2.0,6.0,71,0.00,,FEW250,0.00,VWS V14.01,2013-05-05 10:41:00,
2013-05-05 06:46:00,52.4,43.3,30.06,East,79,3.0,5.0,71,0.00,,FEW250,0.00,VWS V14.01,2013-05-05 10:46:00,
2013-05-05 06:51:00,52.6,43.1,30.06,East,83,5.0,5.0,70,0.00,,FEW250,0.00,VWS V14.01,2013-05-05 10:51:00,
2013-05-05 06:56:00,53.0,43.1,30.06,ESE,109,4.0,7.0,69,0.00,,FEW250,0.00,VWS V14.01,2013-05-05 10:56:00,
2013-05-05 07:01:00,53.5,43.2,30.06,East,101,6.0,9.0,68,0.00,,SCT250,0.00,VWS V14.01,2013-05-05 11:01:00,
2013-05-05 07:06:00,53.7,43.0,30.06,ESE,114,3.0,10.0,67,0.00,,SCT250,0.00,VWS V14.01,2013-05-05 11:06:00,
2013-05-05 07:11:00,53.8,43.1,30.06,ENE,63,5.0,14.0,67,0.00,,SCT250,0.00,VWS V14.01,2013-05-05 11:11:00,
2013-05-05 07:16:00,53.9,43.2,30.06,East,86,6.0,10.0,67,0.00,,SCT250,0.00,VWS V14.01,2013-05-05 11:16:00,
2013-05-05 07:21:00,54.2,43.1,30.06,ENE,75,8.0,11.0,66,0.00,,SCT250,0.00,VWS V14.01,2013-05-05 11:21:00,
2013-05-05 07:26:00,54.2,43.5,30.06,NE,47,7.0,10.0,67,0.00,,SCT250,0.00,VWS V14.01,2013-05-05 11:26:00,
2013-05-05 07:31:00,54.3,43.2,30.06,ENE,78,8.0,12.0,66,0.00,,SCT250,0.00,VWS V14.01,2013-05-05 11:31:00,
2013-05-05 07:36:00,54.6,43.1,30.06,East,90,12.0,14.0,65,0.00,,SCT250,0.00,VWS V14.01,2013-05-05 11:36:00,
2013-05-05 07:41:00,54.8,42.9,30.05,ESE,110,4.0,15.0,64,0.00,,SCT250,0.00,VWS V14.01,2013-05-05 11:41:00,
2013-05-05 07:46:00,55.2,42.8,30.05,East,91,9.0,12.0,63,0.00,,SCT250,0.00,VWS V14.01,2013-05-05 11:46:00,
2013-05-05 07:51:00,55.5,42.7,30.05,East,82,9.0,15.0,62,0.00,,SCT250,0.00,VWS V14.01,2013-05-05 11:51:00,
2013-05-05 07:56:00,55.6,42.8,30.05,SE,134,9.0,14.0,62,0.00,,SCT250,0.00,VWS V14.01,2013-05-05 11:56:00,
2013-05-05 08:01:00,55.5,42.7,30.05,ENE,74,10.0,13.0,62,0.00,,BKN250,0.00,VWS V14.01,2013-05-05 12:01:00,
2013-05-05 08:06:00,55.4,43.0,30.05,East,96,6.0,12.0,63,0.00,,BKN250,0.00,VWS V14.01,2013-05-05 12:06:00,
2013-05-05 08:11:00,55.4,42.6,30.05,East,84,9.0,13.0,62,0.00,,BKN250,0.00,VWS V14.01,2013-05-05 12:11:00,
2013-05-05 08:16:00,55.6,43.2,30.05,SE,125,6.0,11.0,63,0.00,,BKN250,0.00,VWS V14.01,2013-05-05 12:16:00,
2013-05-05 08:21:00,56.0,43.2,30.05,East,98,5.0,13.0,62,0.00,,BKN250,0.00,VWS V14.01,2013-05-05 12:21:00,
2013-05-05 08:26:00,56.4,43.1,30.05,East,96,11.0,14.0,61,0.00,,BKN250,0.00,VWS V14.01,2013-05-05 12:26:00,
2013-05-05 08:31:00,56.9,43.2,30.05,ESE,114,8.0,9.0,60,0.00,,BKN250,0.00,VWS V14.01,2013-05-05 12:31:00,
2013-05-05 08:36:00,57.1,42.9,30.06,East,82,8.0,11.0,59,0.00,,BKN250,0.00,VWS V14.01,2013-05-05 12:36:00,
2013-05-05 08:41:00,57.5,42.8,30.06,East,81,9.0,12.0,58,0.00,,BKN250,0.00,VWS V14.01,2013-05-05 12:41:00,
2013-05-05 08:46:00,57.6,43.0,30.06,ESE,103,16.0,19.0,58,0.00,,BKN250,0.00,VWS V14.01,2013-05-05 12:46:00,
2013-05-05 08:51:00,57.6,42.0,30.06,ENE,63,11.0,17.0,56,0.00,,BKN250,0.00,VWS V14.01,2013-05-05 12:51:00,
2013-05-05 08:55:00,58.0,41.9,30.06,ESE,104,17.0,17.0,55,0.00,,BKN250,0.00,VWS V14.01,2013-05-05 12:55:00,
2013-05-05 09:00:00,58.5,41.9,30.06,East,82,7.0,11.0,54,0.00,,BKN220,0.00,VWS V14.01,2013-05-05 13:00:00,
2013-05-05 09:05:00,58.5,40.5,30.06,ESE,102,15.0,22.0,51,0.00,,BKN220,0.00,VWS V14.01,2013-05-05 13:05:00,
2013-05-05 09:10:00,58.6,40.5,30.06,East,83,11.0,17.0,51,0.00,,BKN220,0.00,VWS V14.01,2013-05-05 13:10:00,
2013-05-05 09:15:00,58.6,40.0,30.06,ENE,72,14.0,17.0,50,0.00,,BKN220,0.00,VWS V14.01,2013-05-05 13:15:00,
2013-05-05 09:20:00,58.9,39.8,30.06,ENE,74,15.0,19.0,49,0.00,,BKN220,0.00,VWS V14.01,2013-05-05 13:20:00,
2013-05-05 09:25:00,59.0,39.9,30.06,ESE,105,8.0,19.0,49,0.00,,BKN220,0.00,VWS V14.01,2013-05-05 13:25:00,
2013-05-05 09:30:00,59.2,39.5,30.06,ESE,103,10.0,14.0,48,0.00,,BKN220,0.00,VWS V14.01,2013-05-05 13:30:00,
2013-05-05 09:35:00,59.7,40.5,30.06,NE,55,11.0,14.0,49,0.00,,BKN220,0.00,VWS V14.01,2013-05-05 13:35:00,
2013-05-05 09:40:00,59.6,39.9,30.06,ESE,107,8.0,12.0,48,0.00,,BKN220,0.00,VWS V14.01,2013-05-05 13:40:00,
2013-05-05 09:45:00,59.5,39.8,30.05,ENE,75,15.0,21.0,48,0.00,,BKN220,0.00,VWS V14.01,2013-05-05 13:45:00,
2013-05-05 09:50:00,59.9,40.2,30.05,East,82,9.0,17.0,48,0.00,,BKN220,0.00,VWS V14.01,2013-05-05 13:50:00,
2013-05-05 09:55:00,60.6,40.8,30.05,ENE,65,14.0,14.0,48,0.00,,BKN220,0.00,VWS V14.01,2013-05-05 13:55:00,
2013-05-05 10:00:00,60.4,40.1,30.05,East,97,13.0,13.0,47,0.00,,BKN220,0.00,VWS V14.01,2013-05-05 14:00:00,
2013-05-05 10:05:00,60.6,39.7,30.05,East,79,8.0,16.0,46,0.00,,BKN220,0.00,VWS V14.01,2013-05-05 14:05:00,
2013-05-05 10:10:00,60.8,39.3,30.05,ENE,74,6.0,17.0,45,0.00,,BKN220,0.00,VWS V14.01,2013-05-05 14:10:00,
2013-05-05 10:15:00,61.1,39.0,30.05,East,93,9.0,15.0,44,0.00,,BKN220,0.00,VWS V14.01,2013-05-05 14:15:00,
2013-05-05 10:20:00,60.9,39.4,30.05,ENE,69,11.0,18.0,45,0.00,,BKN220,0.00,VWS V14.01,2013-05-05 14:20:00,
2013-05-05 10:25:00,60.8,38.8,30.05,ENE,68,12.0,15.0,44,0.00,,BKN220,0.00,VWS V14.01,2013-05-05 14:25:00,
2013-05-05 10:30:00,60.9,38.9,30.05,ENE,77,6.0,8.0,44,0.00,,BKN220,0.00,VWS V14.01,2013-05-05 14:30:00,
2013-05-05 10:35:00,61.5,38.8,30.05,East,85,10.0,13.0,43,0.00,,BKN220,0.00,VWS V14.01,2013-05-05 14:35:00,
2013-05-05 10:40:00,61.7,39.0,30.05,East,94,3.0,9.0,43,0.00,,BKN220,0.00,VWS V14.01,2013-05-05 14:40:00,
2013-05-05 10:45:00,61.9,38.6,30.04,East,87,8.0,13.0,42,0.00,,BKN220,0.00,VWS V14.01,2013-05-05 14:45:00,
2013-05-05 10:50:00,62.0,38.0,30.04,ENE,74,14.0,14.0,41,0.00,,BKN220,0.00,VWS V14.01,2013-05-05 14:50:00,
2013-05-05 10:55:00,62.1,38.1,30.04,ENE,60,9.0,14.0,41,0.00,,BKN220,0.00,VWS V14.01,2013-05-05 14:55:00,
2013-05-05 11:00:00,62.7,38.0,30.04,NE,49,11.0,17.0,40,0.00,,BKN220,0.00,VWS V14.01,2013-05-05 15:00:00,
2013-05-05 11:05:00,63.0,39.0,30.04,East,97,13.0,13.0,41,0.00,,BKN220,0.00,VWS V14.01,2013-05-05 15:05:00,
2013-05-05 11:10:00,63.1,37.1,30.04,ENE,66,8.0,10.0,38,0.00,,BKN220,0.00,VWS V14.01,2013-05-05 15:10:00,
2013-05-05 11:15:00,63.3,37.3,30.04,East,82,6.0,14.0,38,0.00,,BKN220,0.00,VWS V14.01,2013-05-05 15:15:00,
2013-05-05 11:20:00,63.7,38.3,30.04,ENE,60,5.0,11.0,39,0.00,,BKN220,0.00,VWS V14.01,2013-05-05 15:20:00,
2013-05-05 11:25:00,63.8,37.7,30.04,East,81,15.0,15.0,38,0.00,,BKN220,0.00,VWS V14.01,2013-05-05 15:25:00,
2013-05-05 11:30:00,64.2,38.8,30.04,ENE,72,12.0,12.0,39,0.00,,BKN220,0.00,VWS V14.01,2013-05-05 15:30:00,
2013-05-05 11:35:00,64.3,38.2,30.04,ENE,68,10.0,11.0,38,0.00,,BKN220,0.00,VWS V14.01,2013-05-05 15:35:00,
2013-05-05 11:40:00,64.9,38.7,30.04,ENE,65,14.0,15.0,38,0.00,,BKN220,0.00,VWS V14.01,2013-05-05 15:40:00,
2013-05-05 11:45:00,65.1,38.2,30.03,East,83,9.0,13.0,37,0.00,,BKN220,0.00,VWS V14.01,2013-05-05 15:45:00,
2013-05-05 11:50:00,65.4,38.5,30.03,East,85,8.0,9.0,37,0.00,,BKN220,0.00,VWS V14.01,2013-05-05 15:50:00,
2013-05-05 11:55:00,65.2,37.6,30.04,East,82,7.0,18.0,36,0.00,,BKN220,0.00,VWS V14.01,2013-05-05 15:55:00,
2013-05-05 12:00:00,65.2,37.6,30.03,ENE,58,6.0,13.0,36,0.00,,BKN220,0.00,VWS V14.01,2013-05-05 16:00:00,
2013-05-05 12:05:00,65.6,38.0,30.03,ENE,77,6.0,18.0,36,0.00,,CLR,0.00,VWS V14.01,2013-05-05 16:05:00,
2013-05-05 12:10:00,65.7,37.3,30.03,ENE,61,14.0,15.0,35,0.00,,CLR,0.00,VWS V14.01,2013-05-05 16:10:00,
2013-05-05 12:15:00,65.9,37.5,30.03,NE,56,8.0,14.0,35,0.00,,CLR,0.00,VWS V14.01,2013-05-05 16:15:00,
2013-05-05 12:20:00,66.8,37.6,30.03,ENE,75,11.0,17.0,34,0.00,,CLR,0.00,VWS V14.01,2013-05-05 16:20:00,
2013-05-05 12:25:00,66.7,36.7,30.03,East,91,8.0,12.0,33,0.00,,CLR,0.00,VWS V14.01,2013-05-05 16:25:00,
2013-05-05 12:30:00,67.0,38.5,30.03,ESE,118,7.0,15.0,35,0.00,,CLR,0.00,VWS V14.01,2013-05-05 16:30:00,
2013-05-05 12:35:00,67.1,38.6,30.03,SE,131,8.0,11.0,35,0.00,,CLR,0.00,VWS V14.01,2013-05-05 16:35:00,
2013-05-05 12:40:00,67.1,37.1,30.03,ENE,68,10.0,10.0,33,0.00,,CLR,0.00,VWS V14.01,2013-05-05 16:40:00,
2013-05-05 12:45:00,67.4,38.8,30.03,ENE,64,7.0,12.0,35,0.00,,CLR,0.00,VWS V14.01,2013-05-05 16:45:00,
2013-05-05 12:50:00,67.2,37.9,30.04,East,84,7.0,13.0,34,0.00,,CLR,0.00,VWS V14.01,2013-05-05 16:50:00,
2013-05-05 12:55:00,67.2,37.9,30.03,ENE,74,7.0,13.0,34,0.00,,CLR,0.00,VWS V14.01,2013-05-05 16:55:00,
2013-05-05 13:00:00,67.4,36.5,30.03,ESE,113,9.0,11.0,32,0.00,,CLR,0.00,VWS V14.01,2013-05-05 17:00:00,
2013-05-05 13:05:00,67.6,37.5,30.03,East,84,9.0,9.0,33,0.00,,BKN220,0.00,VWS V14.01,2013-05-05 17:05:00,
2013-05-05 13:10:00,67.8,37.7,30.03,East,93,11.0,16.0,33,0.00,,BKN220,0.00,VWS V14.01,2013-05-05 17:10:00,
2013-05-05 13:15:00,67.9,37.8,30.03,ENE,75,11.0,14.0,33,0.00,,BKN220,0.00,VWS V14.01,2013-05-05 17:15:00,
2013-05-05 13:20:00,67.8,37.7,30.03,ENE,74,7.0,9.0,33,0.00,,BKN220,0.00,VWS V14.01,2013-05-05 17:20:00,
2013-05-05 13:25:00,67.8,38.4,30.03,ENE,69,4.0,7.0,34,0.00,,BKN220,0.00,VWS V14.01,2013-05-05 17:25:00,
2013-05-05 13:30:00,68.0,38.6,30.03,East,96,8.0,10.0,34,0.00,,BKN220,0.00,VWS V14.01,2013-05-05 17:30:00,
2013-05-05 13:35:00,68.0,38.6,30.03,East,84,7.0,8.0,34,0.00,,BKN220,0.00,VWS V14.01,2013-05-05 17:35:00,
2013-05-05 13:40:00,67.9,38.5,30.03,ENE,67,10.0,12.0,34,0.00,,BKN220,0.00,VWS V14.01,2013-05-05 17:40:00,
2013-05-05 13:45:00,68.0,37.8,30.03,ESE,115,9.0,9.0,33,0.00,,BKN220,0.00,VWS V14.01,2013-05-05 17:45:00,
2013-05-05 13:50:00,67.9,37.8,30.03,SE,127,4.0,7.0,33,0.00,,BKN220,0.00,VWS V14.01,2013-05-05 17:50:00,
2013-05-05 13:55:00,68.0,37.8,30.03,NE,51,4.0,7.0,33,0.00,,BKN220,0.00,VWS V14.01,2013-05-05 17:55:00,
2013-05-05 14:00:00,68.1,37.2,30.03,ENE,67,2.0,8.0,32,0.00,,BKN220,0.00,VWS V14.01,2013-05-05 18:00:00,
2013-05-05 14:05:00,68.4,37.4,30.03,SE,136,2.0,5.0,32,0.00,,BKN220,0.00,VWS V14.01,2013-05-05 18:05:00,
2013-05-05 14:10:00,68.5,36.7,30.02,East,94,4.0,10.0,31,0.00,,BKN220,0.00,VWS V14.01,2013-05-05 18:10:00,
2013-05-05 14:15:00,68.9,38.6,30.02,East,91,8.0,8.0,33,0.00,,BKN220,0.00,VWS V14.01,2013-05-05 18:15:00,
2013-05-05 14:20:00,69.0,37.1,30.02,East,91,4.0,7.0,31,0.00,,BKN220,0.00,VWS V14.01,2013-05-05 18:20:00,
2013-05-05 14:25:00,69.1,37.2,30.02,NNE,30,5.0,7.0,31,0.00,,BKN220,0.00,VWS V14.01,2013-05-05 18:25:00,
2013-05-05 14:30:00,69.2,38.1,30.02,East,93,3.0,5.0,32,0.00,,BKN220,0.00,VWS V14.01,2013-05-05 18:30:00,
2013-05-05 14:35:00,69.8,40.2,30.01,ENE,70,3.0,5.0,34,0.00,,BKN220,0.00,VWS V14.01,2013-05-05 18:35:00,
2013-05-05 14:40:00,70.1,38.1,30.01,ENE,57,9.0,9.0,31,0.00,,BKN220,0.00,VWS V14.01,2013-05-05 18:40:00,
2013-05-05 14:45:00,70.4,39.2,30.01,ESE,119,5.0,6.0,32,0.00,,BKN220,0.00,VWS V14.01,2013-05-05 18:45:00,
2013-05-05 14:50:00,70.3,37.4,30.01,ENE,70,2.0,5.0,30,0.00,,BKN220,0.00,VWS V14.01,2013-05-05 18:50:00,
2013-05-05 14:55:00,70.2,38.2,30.01,NE,51,4.0,9.0,31,0.00,,BKN220,0.00,VWS V14.01,2013-05-05 18:55:00,
2013-05-05 15:00:00,70.1,38.1,30.01,NE,39,8.0,12.0,31,0.00,,BKN220,0.00,VWS V14.01,2013-05-05 19:00:00,
2013-05-05 15:05:00,70.2,38.2,30.01,East,93,4.0,5.0,31,0.00,,BKN220,0.00,VWS V14.01,2013-05-05 19:05:00,
2013-05-05 15:10:00,70.3,38.3,30.01,ENE,60,6.0,9.0,31,0.00,,BKN220,0.00,VWS V14.01,2013-05-05 19:10:00,
2013-05-05 15:15:00,70.3,38.3,30.00,NE,46,1.0,7.0,31,0.00,,BKN220,0.00,VWS V14.01,2013-05-05 19:15:00,
2013-05-05 15:20:00,70.8,40.3,30.00,SE,131,1.0,5.0,33,0.00,,BKN220,0.00,VWS V14.01,2013-05-05 19:20:00,
2013-05-05 15:25:00,70.8,38.7,30.00,NE,50,5.0,6.0,31,0.00,,BKN220,0.00,VWS V14.01,2013-05-05 19:25:00,
2013-05-05 15:30:00,70.9,39.6,30.00,ENE,69,7.0,7.0,32,0.00,,BKN220,0.00,VWS V14.01,2013-05-05 19:30:00,
2013-05-05 15:35:00,70.6,39.3,30.00,North,360,2.0,6.0,32,0.00,,BKN220,0.00,VWS V14.01,2013-05-05 19:35:00,
2013-05-05 15:40:00,70.7,40.2,30.00,ENE,68,4.0,5.0,33,0.00,,BKN220,0.00,VWS V14.01,2013-05-05 19:40:00,
2013-05-05 15:45:00,70.8,38.7,29.99,East,86,0.0,1.0,31,0.00,,BKN220,0.00,VWS V14.01,2013-05-05 19:45:00,
2013-05-05 15:50:00,71.1,38.1,29.99,ENE,70,8.0,9.0,30,0.00,,BKN220,0.00,VWS V14.01,2013-05-05 19:50:00,
2013-05-05 15:55:00,71.1,39.0,29.99,NE,51,5.0,8.0,31,0.00,,BKN220,0.00,VWS V14.01,2013-05-05 19:55:00,
2013-05-05 16:00:00,71.3,38.3,29.99,East,92,6.0,10.0,30,0.00,,BKN220,0.00,VWS V14.01,2013-05-05 20:00:00,
2013-05-05 16:05:00,71.4,39.2,29.98,ENE,69,8.0,12.0,31,0.00,,BKN220,0.00,VWS V14.01,2013-05-05 20:05:00,
2013-05-05 16:10:00,71.2,38.2,29.98,ENE,68,8.0,9.0,30,0.00,,BKN220,0.00,VWS V14.01,2013-05-05 20:10:00,
2013-05-05 16:15:00,71.1,39.0,29.98,ENE,63,5.0,10.0,31,0.00,,BKN220,0.00,VWS V14.01,2013-05-05 20:15:00,
2013-05-05 16:20:00,71.2,39.0,29.98,ENE,67,5.0,9.0,31,0.00,,BKN220,0.00,VWS V14.01,2013-05-05 20:20:00,
2013-05-05 16:25:00,71.1,37.3,29.98,ENE,63,12.0,12.0,29,0.00,,BKN220,0.00,VWS V14.01,2013-05-05 20:25:00,
2013-05-05 16:30:00,70.9,37.1,29.98,ENE,75,5.0,7.0,29,0.00,,BKN220,0.00,VWS V14.01,2013-05-05 20:30:00,
2013-05-05 16:35:00,71.1,38.1,29.98,East,82,8.0,9.0,30,0.00,,BKN220,0.00,VWS V14.01,2013-05-05 20:35:00,
2013-05-05 16:40:00,71.1,38.1,29.98,East,82,8.0,8.0,30,0.00,,BKN220,0.00,VWS V14.01,2013-05-05 20:40:00,
2013-05-05 16:45:00,71.2,39.0,29.98,East,98,5.0,9.0,31,0.00,,BKN220,0.00,VWS V14.01,2013-05-05 20:45:00,
2013-05-05 16:50:00,71.2,38.2,29.97,ENE,63,6.0,9.0,30,0.00,,BKN220,0.00,VWS V14.01,2013-05-05 20:50:00,
2013-05-05 16:55:00,71.2,38.2,29.97,NE,48,10.0,14.0,30,0.00,,BKN220,0.00,VWS V14.01,2013-05-05 20:55:00,
2013-05-05 17:00:00,71.2,37.3,29.97,East,84,9.0,12.0,29,0.00,,BKN220,0.00,VWS V14.01,2013-05-05 21:00:00,
2013-05-05 17:05:00,71.2,38.2,29.97,NE,46,9.0,14.0,30,0.00,,OVC180,0.00,VWS V14.01,2013-05-05 21:05:00,
2013-05-05 17:10:00,71.2,37.3,29.97,ENE,65,4.0,11.0,29,0.00,,OVC180,0.00,VWS V14.01,2013-05-05 21:10:00,
2013-05-05 17:15:00,71.2,38.2,29.97,NE,50,10.0,13.0,30,0.00,,OVC180,0.00,VWS V14.01,2013-05-05 21:15:00,
2013-05-05 17:20:00,71.2,38.2,29.97,ENE,72,9.0,11.0,30,0.00,,OVC180,0.00,VWS V14.01,2013-05-05 21:20:00,
2013-05-05 17:25:00,71.2,37.3,29.97,NE,46,5.0,11.0,29,0.00,,OVC180,0.00,VWS V14.01,2013-05-05 21:25:00,
2013-05-05 17:30:00,71.3,40.0,29.97,East,97,6.0,8.0,32,0.00,,OVC180,0.00,VWS V14.01,2013-05-05 21:30:00,
2013-05-05 17:35:00,71.3,37.4,29.97,ENE,69,3.0,8.0,29,0.00,,OVC180,0.00,VWS V14.01,2013-05-05 21:35:00,
2013-05-05 17:40:00,71.4,38.4,29.96,NNE,32,11.0,11.0,30,0.00,,OVC180,0.00,VWS V14.01,2013-05-05 21:40:00,
2013-05-05 17:45:00,71.5,38.5,29.96,NE,50,5.0,8.0,30,0.00,,OVC180,0.00,VWS V14.01,2013-05-05 21:45:00,
2013-05-05 17:50:00,71.5,37.6,29.96,NE,43,9.0,9.0,29,0.00,,OVC180,0.00,VWS V14.01,2013-05-05 21:50:00,
2013-05-05 17:55:00,71.5,38.5,29.96,ENE,60,6.0,14.0,30,0.00,,OVC180,0.00,VWS V14.01,2013-05-05 21:55:00,
2013-05-05 18:00:00,71.5,37.6,29.96,ENE,76,5.0,11.0,29,0.00,,OVC180,0.00,VWS V14.01,2013-05-05 22:00:00,
2013-05-05 18:05:00,71.5,37.6,29.96,ENE,68,8.0,8.0,29,0.00,,OVC170,0.00,VWS V14.01,2013-05-05 22:05:00,
2013-05-05 18:10:00,71.5,36.7,29.96,NE,55,8.0,8.0,28,0.00,,OVC170,0.00,VWS V14.01,2013-05-05 22:10:00,
2013-05-05 18:15:00,71.4,37.5,29.96,East,79,4.0,8.0,29,0.00,,OVC170,0.00,VWS V14.01,2013-05-05 22:15:00,
2013-05-05 18:20:00,71.4,37.5,29.96,NE,55,5.0,8.0,29,0.00,,OVC170,0.00,VWS V14.01,2013-05-05 22:20:00,
2013-05-05 18:25:00,71.2,38.2,29.95,NNE,19,4.0,8.0,30,0.00,,OVC170,0.00,VWS V14.01,2013-05-05 22:25:00,
2013-05-05 18:30:00,71.1,37.3,29.95,NE,55,7.0,10.0,29,0.00,,OVC170,0.00,VWS V14.01,2013-05-05 22:30:00,
2013-05-05 18:35:00,71.1,39.0,29.95,NNE,32,5.0,8.0,31,0.00,,OVC170,0.00,VWS V14.01,2013-05-05 22:35:00,
2013-05-05 18:40:00,71.1,38.1,29.95,NNE,27,5.0,8.0,30,0.00,,OVC170,0.00,VWS V14.01,2013-05-05 22:40:00,
2013-05-05 18:45:00,71.0,38.0,29.95,ENE,60,5.0,8.0,30,0.00,,OVC170,0.00,VWS V14.01,2013-05-05 22:45:00,
2013-05-05 18:50:00,71.0,38.0,29.95,NE,46,6.0,7.0,30,0.00,,OVC170,0.00,VWS V14.01,2013-05-05 22:50:00,
2013-05-05 18:55:00,71.0,38.0,29.95,NE,51,6.0,6.0,30,0.00,,OVC170,0.00,VWS V14.01,2013-05-05 22:55:00,
2013-05-05 19:00:00,70.9,38.0,29.95,NE,44,4.0,8.0,30,0.00,,OVC170,0.00,VWS V14.01,2013-05-05 23:00:00,
2013-05-05 19:05:00,70.8,37.9,29.95,NNE,27,4.0,8.0,30,0.00,,OVC150,0.00,VWS V14.01,2013-05-05 23:05:00,
2013-05-05 19:10:00,70.7,37.8,29.95,NE,38,4.0,5.0,30,0.00,,OVC150,0.00,VWS V14.01,2013-05-05 23:10:00,
2013-05-05 19:15:00,70.6,37.7,29.95,ENE,60,4.0,7.0,30,0.00,,OVC150,0.00,VWS V14.01,2013-05-05 23:15:00,
2013-05-05 19:20:00,70.5,37.6,29.95,ENE,60,3.0,7.0,30,0.00,,OVC150,0.00,VWS V14.01,2013-05-05 23:20:00,
2013-05-05 19:25:00,70.3,37.4,29.95,NE,44,4.0,6.0,30,0.00,,OVC150,0.00,VWS V14.01,2013-05-05 23:25:00,
2013-05-05 19:30:00,70.1,37.3,29.95,NE,53,4.0,5.0,30,0.00,,OVC150,0.00,VWS V14.01,2013-05-05 23:30:00,
2013-05-05 19:35:00,69.8,37.8,29.95,NE,46,3.0,4.0,31,0.00,,OVC150,0.00,VWS V14.01,2013-05-05 23:35:00,
2013-05-05 19:40:00,69.6,37.7,29.95,NE,44,3.0,4.0,31,0.00,,OVC150,0.00,VWS V14.01,2013-05-05 23:40:00,
2013-05-05 19:45:00,69.4,38.3,29.95,ENE,64,2.0,3.0,32,0.00,,OVC150,0.00,VWS V14.01,2013-05-05 23:45:00,
2013-05-05 19:50:00,69.3,38.2,29.96,NE,45,2.0,3.0,32,0.00,,OVC150,0.00,VWS V14.01,2013-05-05 23:50:00,
2013-05-05 19:55:00,69.1,38.0,29.96,NE,51,1.0,2.0,32,0.00,,OVC150,0.00,VWS V14.01,2013-05-05 23:55:00,
2013-05-05 20:00:00,68.9,37.8,29.96,ENE,73,0.0,2.0,32,0.00,,OVC150,0.00,VWS V14.01,2013-05-06 00:00:00,
2013-05-05 20:05:00,68.7,38.5,29.96,ENE,74,1.0,2.0,33,0.00,,OVC150,0.00,VWS V14.01,2013-05-06 00:05:00,
2013-05-05 20:10:00,68.5,38.3,29.96,NE,49,2.0,2.0,33,0.00,,OVC150,0.00,VWS V14.01,2013-05-06 00:10:00,
2013-05-05 20:15:00,68.4,38.2,29.96,ENE,65,1.0,3.0,33,0.00,,OVC150,0.00,VWS V14.01,2013-05-06 00:15:00,
2013-05-05 20:20:00,68.2,37.2,29.96,ENE,68,1.0,2.0,32,0.00,,OVC150,0.00,VWS V14.01,2013-05-06 00:20:00,
2013-05-05 20:25:00,68.0,37.8,29.96,ENE,65,2.0,2.0,33,0.00,,OVC150,0.00,VWS V14.01,2013-05-06 00:25:00,
2013-05-05 20:30:00,67.8,37.7,29.96,ENE,72,1.0,1.0,33,0.00,,OVC150,0.00,VWS V14.01,2013-05-06 00:30:00,
2013-05-05 20:35:00,67.5,38.2,29.96,East,84,1.0,2.0,34,0.00,,OVC150,0.00,VWS V14.01,2013-05-06 00:35:00,
2013-05-05 20:40:00,67.2,37.9,29.96,ENE,58,2.0,3.0,34,0.00,,OVC150,0.00,VWS V14.01,2013-05-06 00:40:00,
2013-05-05 20:45:00,67.1,37.1,29.97,ENE,68,4.0,4.0,33,0.00,,OVC150,0.00,VWS V14.01,2013-05-06 00:45:00,
2013-05-05 20:50:00,67.0,37.7,29.97,ESE,105,2.0,2.0,34,0.00,,OVC150,0.00,VWS V14.01,2013-05-06 00:50:00,
2013-05-05 20:55:00,66.9,37.7,29.97,ENE,72,2.0,4.0,34,0.00,,OVC150,0.00,VWS V14.01,2013-05-06 00:55:00,
2013-05-05 21:00:00,66.7,37.5,29.97,ENE,70,3.0,4.0,34,0.00,,OVC150,0.00,VWS V14.01,2013-05-06 01:00:00,
2013-05-05 21:05:00,66.8,36.0,29.98,East,101,4.0,4.0,32,0.00,,OVC140,0.00,VWS V14.01,2013-05-06 01:05:00,
2013-05-05 21:10:00,67.1,36.3,29.98,ESE,103,2.0,5.0,32,0.00,,OVC140,0.00,VWS V14.01,2013-05-06 01:10:00,
2013-05-05 21:15:00,67.0,36.2,29.98,East,101,4.0,4.0,32,0.00,,OVC140,0.00,VWS V14.01,2013-05-06 01:15:00,
2013-05-05 21:20:00,66.7,36.7,29.98,ESE,113,3.0,3.0,33,0.00,,OVC140,0.00,VWS V14.01,2013-05-06 01:20:00,
2013-05-05 21:25:00,66.3,37.1,29.98,ESE,103,2.0,4.0,34,0.00,,OVC140,0.00,VWS V14.01,2013-05-06 01:25:00,
2013-05-05 21:30:00,66.0,36.8,29.98,ESE,105,3.0,3.0,34,0.00,,OVC140,0.00,VWS V14.01,2013-05-06 01:30:00,
2013-05-05 21:35:00,65.9,37.5,29.98,ENE,63,4.0,4.0,35,0.00,,OVC140,0.00,VWS V14.01,2013-05-06 01:35:00,
2013-05-05 21:40:00,65.8,36.7,29.98,ENE,75,4.0,7.0,34,0.00,,OVC140,0.00,VWS V14.01,2013-05-06 01:40:00,
2013-05-05 21:45:00,66.0,36.1,29.98,ESE,108,4.0,6.0,33,0.00,,OVC140,0.00,VWS V14.01,2013-05-06 01:45:00,
2013-05-05 21:50:00,66.2,36.3,29.98,ENE,77,5.0,5.0,33,0.00,,OVC140,0.00,VWS V14.01,2013-05-06 01:50:00,
2013-05-05 21:55:00,66.2,36.3,29.99,NE,53,5.0,8.0,33,0.00,,OVC140,0.00,VWS V14.01,2013-05-06 01:55:00,
2013-05-05 22:00:00,66.2,35.5,29.98,ENE,68,6.0,6.0,32,0.00,,OVC140,0.00,VWS V14.01,2013-05-06 02:00:00,
2013-05-05 22:05:00,66.1,36.2,29.98,ENE,68,4.0,7.0,33,0.00,,OVC120,0.00,VWS V14.01,2013-05-06 02:05:00,
2013-05-05 22:10:00,65.8,35.9,29.98,ENE,63,4.0,6.0,33,0.00,,OVC120,0.00,VWS V14.01,2013-05-06 02:10:00,
2013-05-05 22:15:00,65.7,35.8,29.99,ENE,73,4.0,6.0,33,0.00,,OVC120,0.00,VWS V14.01,2013-05-06 02:15:00,
2013-05-05 22:20:00,65.8,35.2,29.99,ESE,117,4.0,6.0,32,0.00,,OVC120,0.00,VWS V14.01,2013-05-06 02:20:00,
2013-05-05 22:25:00,65.9,35.2,29.99,ENE,60,5.0,5.0,32,0.00,,OVC120,0.00,VWS V14.01,2013-05-06 02:25:00,
2013-05-05 22:30:00,65.8,35.2,29.98,NE,53,4.0,4.0,32,0.00,,OVC120,0.00,VWS V14.01,2013-05-06 02:30:00,
2013-05-05 22:35:00,65.4,35.6,29.98,NE,56,3.0,5.0,33,0.00,,OVC120,0.00,VWS V14.01,2013-05-06 02:35:00,
2013-05-05 22:40:00,65.2,35.4,29.98,ENE,68,4.0,4.0,33,0.00,,OVC120,0.00,VWS V14.01,2013-05-06 02:40:00,
2013-05-05 22:45:00,65.1,35.3,29.99,East,87,5.0,5.0,33,0.00,,OVC120,0.00,VWS V14.01,2013-05-06 02:45:00,
2013-05-05 22:50:00,65.1,35.3,29.99,ENE,77,4.0,5.0,33,0.00,,OVC120,0.00,VWS V14.01,2013-05-06 02:50:00,
2013-05-05 22:55:00,65.1,34.5,29.99,East,89,4.0,6.0,32,0.00,,OVC120,0.00,VWS V14.01,2013-05-06 02:55:00,
2013-05-05 23:00:00,65.0,34.5,29.99,SE,131,3.0,4.0,32,0.00,,OVC120,0.00,VWS V14.01,2013-05-06 03:00:00,
2013-05-05 23:05:00,64.6,35.6,29.99,East,90,3.0,4.0,34,0.00,,BKN110,0.00,VWS V14.01,2013-05-06 03:05:00,
2013-05-05 23:10:00,64.1,35.9,29.99,SE,133,3.0,3.0,35,0.00,,BKN110,0.00,VWS V14.01,2013-05-06 03:10:00,
2013-05-05 23:15:00,63.8,35.7,29.99,East,82,3.0,3.0,35,0.00,,BKN110,0.00,VWS V14.01,2013-05-06 03:15:00,
2013-05-05 23:20:00,63.6,36.2,29.99,ESE,117,2.0,3.0,36,0.00,,BKN110,0.00,VWS V14.01,2013-05-06 03:20:00,
2013-05-05 23:25:00,63.5,36.1,29.99,East,79,2.0,3.0,36,0.00,,BKN110,0.00,VWS V14.01,2013-05-06 03:25:00,
2013-05-05 23:30:00,63.6,36.2,29.99,ENE,77,3.0,4.0,36,0.00,,BKN110,0.00,VWS V14.01,2013-05-06 03:30:00,
2013-05-05 23:35:00,63.5,36.1,29.99,East,81,3.0,5.0,36,0.00,,BKN110,0.00,VWS V14.01,2013-05-06 03:35:00,
2013-05-05 23:40:00,63.3,36.6,29.99,East,84,3.0,5.0,37,0.00,,BKN110,0.00,VWS V14.01,2013-05-06 03:40:00,
2013-05-05 23:45:00,63.2,35.8,29.99,ENE,77,2.0,4.0,36,0.00,,BKN110,0.00,VWS V14.01,2013-05-06 03:45:00,
2013-05-05 23:50:00,63.2,35.8,29.99,East,86,2.0,4.0,36,0.00,,BKN110,0.00,VWS V14.01,2013-05-06 03:50:00,
2013-05-05 23:55:00,63.2,35.8,29.99,ESE,111,1.0,2.0,36,0.00,,BKN110,0.00,VWS V14.01,2013-05-06 03:55:00,